SALOWG 160850Z VRB02KT 9999 FEW025 08/02 Q1031 NOSIG
FTLOWG 160515Z 1606/1706 13005KT 9999 BKN050 TX09/1613Z TN01/1706Z TEMPO 1614/1619 06010KT FEW060 BECMG 1704/1706 CAVOK